createdAt,value
2019-03-08T00:00:46.112Z,927.74
2019-03-08T00:02:17.927Z,927.71
2019-03-08T00:03:49.742Z,927.72
2019-03-08T00:05:21.558Z,927.74
2019-03-08T00:06:53.625Z,927.74
2019-03-08T00:08:25.242Z,927.76
2019-03-08T00:09:57.003Z,927.76
2019-03-08T00:11:28.822Z,927.76
2019-03-08T00:13:00.637Z,927.77
2019-03-08T00:14:32.449Z,927.77
2019-03-08T00:16:04.310Z,927.79
2019-03-08T00:17:36.086Z,927.80
2019-03-08T00:19:07.911Z,927.83
2019-03-08T00:20:39.710Z,927.85
2019-03-08T00:22:11.525Z,927.84
2019-03-08T00:23:43.341Z,927.83
2019-03-08T00:25:15.257Z,927.83
2019-03-08T00:26:46.969Z,927.82
2019-03-08T00:28:18.784Z,927.82
2019-03-08T00:29:50.599Z,927.84
2019-03-08T00:31:22.414Z,927.91
2019-03-08T00:32:54.230Z,927.87
2019-03-08T00:34:26.043Z,927.87
2019-03-08T00:35:57.861Z,927.93
2019-03-08T00:37:29.672Z,927.90
2019-03-08T00:39:01.487Z,927.90
2019-03-08T00:40:33.302Z,927.92
2019-03-08T00:42:05.124Z,928.02
2019-03-08T00:43:37.032Z,928.01
2019-03-08T00:45:08.748Z,928.08
2019-03-08T00:46:40.562Z,928.06
2019-03-08T00:48:12.376Z,928.07
2019-03-08T00:49:44.191Z,928.09
2019-03-08T00:51:16.007Z,928.13
2019-03-08T00:52:47.821Z,928.12
2019-03-08T00:54:19.637Z,928.11
2019-03-08T00:55:51.451Z,928.11
2019-03-08T00:57:23.265Z,928.13
2019-03-08T00:58:55.080Z,928.16
2019-03-08T01:00:26.907Z,928.15
2019-03-08T01:01:59.061Z,928.14
2019-03-08T01:03:30.525Z,928.12
2019-03-08T01:05:02.340Z,928.09
2019-03-08T01:06:34.154Z,928.12
2019-03-08T01:08:05.969Z,928.15
2019-03-08T01:09:37.786Z,928.15
2019-03-08T01:11:09.600Z,928.12
2019-03-08T01:12:41.414Z,928.12
2019-03-08T01:14:13.228Z,928.08
2019-03-08T01:15:45.042Z,928.09
2019-03-08T01:17:16.859Z,928.03
2019-03-08T01:18:48.673Z,928.04
2019-03-08T01:20:20.738Z,928.03
2019-03-08T01:21:52.302Z,927.97
2019-03-08T01:23:24.118Z,927.95
2019-03-08T01:24:55.932Z,927.96
2019-03-08T01:26:27.747Z,927.91
2019-03-08T01:27:59.561Z,927.87
2019-03-08T01:29:31.407Z,927.87
2019-03-08T01:31:03.191Z,927.82
2019-03-08T01:32:35.006Z,927.82
2019-03-08T01:34:06.868Z,927.76
2019-03-08T01:35:38.667Z,927.77
2019-03-08T01:37:10.452Z,927.76
2019-03-08T01:38:42.367Z,927.76
2019-03-08T01:40:14.082Z,927.77
2019-03-08T01:41:45.896Z,927.73
2019-03-08T01:43:17.712Z,927.71
2019-03-08T01:44:49.527Z,927.77
2019-03-08T01:46:21.342Z,927.77
2019-03-08T01:47:53.157Z,927.83
2019-03-08T01:49:25.009Z,927.90
2019-03-08T01:50:56.788Z,927.96
2019-03-08T01:52:28.602Z,928.05
2019-03-08T01:54:00.417Z,928.10
2019-03-08T01:55:32.233Z,928.06
2019-03-08T01:57:04.149Z,928.04
2019-03-08T01:58:35.865Z,928.09
2019-03-08T02:00:07.678Z,928.08
2019-03-08T02:01:39.495Z,928.07
2019-03-08T02:03:11.308Z,928.06
2019-03-08T02:04:43.127Z,928.07
2019-03-08T02:06:14.938Z,928.10
2019-03-08T02:07:46.753Z,928.04
2019-03-08T02:09:18.569Z,928.01
2019-03-08T02:10:50.383Z,928.08
2019-03-08T02:12:22.200Z,928.19
2019-03-08T02:13:54.012Z,928.19
2019-03-08T02:15:25.927Z,928.20
2019-03-08T02:16:57.643Z,928.23
2019-03-08T02:18:29.458Z,928.20
2019-03-08T02:20:01.272Z,928.18
2019-03-08T02:21:33.096Z,928.20
2019-03-08T02:23:04.904Z,928.14
2019-03-08T02:24:36.716Z,928.11
2019-03-08T02:26:08.532Z,928.14
2019-03-08T02:27:40.345Z,928.15
2019-03-08T02:29:12.178Z,928.14
2019-03-08T02:30:44.035Z,928.18
2019-03-08T02:32:15.791Z,928.18
2019-03-08T02:33:47.855Z,928.14
2019-03-08T02:35:19.422Z,928.18
2019-03-08T02:36:51.235Z,928.20
2019-03-08T02:38:23.053Z,928.21
2019-03-08T02:39:54.866Z,928.14
2019-03-08T02:41:26.680Z,928.18
2019-03-08T02:42:58.498Z,928.19
2019-03-08T02:44:30.309Z,928.14
2019-03-08T02:46:02.225Z,928.10
2019-03-08T02:47:33.938Z,928.15
2019-03-08T02:49:06.427Z,928.15
2019-03-08T02:50:37.568Z,928.16
2019-03-08T02:52:09.682Z,928.18
2019-03-08T02:53:41.203Z,928.21
2019-03-08T02:55:13.016Z,928.25
2019-03-08T02:56:44.826Z,928.23
2019-03-08T02:58:16.642Z,928.20
2019-03-08T02:59:48.457Z,928.19
2019-03-08T03:01:20.269Z,928.20
2019-03-08T03:02:52.086Z,928.17
2019-03-08T03:04:24.000Z,928.11
2019-03-08T03:05:55.724Z,928.09
2019-03-08T03:07:27.529Z,928.11
2019-03-08T03:08:59.343Z,928.09
2019-03-08T03:10:31.262Z,928.03
2019-03-08T03:12:02.975Z,928.03
2019-03-08T03:13:34.789Z,928.05
2019-03-08T03:15:06.604Z,928.00
2019-03-08T03:16:38.418Z,927.98
2019-03-08T03:18:10.233Z,927.96
2019-03-08T03:19:42.047Z,927.93
2019-03-08T03:21:13.861Z,927.91
2019-03-08T03:22:45.676Z,927.84
2019-03-08T03:24:17.491Z,927.79
2019-03-08T03:25:49.306Z,927.84
2019-03-08T03:27:21.120Z,927.85
2019-03-08T03:28:53.035Z,927.86
2019-03-08T03:30:24.758Z,927.82
2019-03-08T03:31:56.566Z,927.81
2019-03-08T03:33:28.381Z,927.83
2019-03-08T03:35:00.311Z,927.84
2019-03-08T03:36:32.008Z,927.86
2019-03-08T03:38:03.823Z,927.83
2019-03-08T03:39:35.640Z,927.78
2019-03-08T03:41:07.460Z,927.77
2019-03-08T03:42:39.268Z,927.79
2019-03-08T03:44:11.083Z,927.80
2019-03-08T03:45:42.899Z,927.77
2019-03-08T03:47:14.963Z,927.77
2019-03-08T03:48:46.527Z,927.72
2019-03-08T03:50:18.790Z,927.69
2019-03-08T03:51:50.157Z,927.69
2019-03-08T03:53:22.073Z,927.63
2019-03-08T03:54:53.794Z,927.61
2019-03-08T03:56:25.601Z,927.57
2019-03-08T03:57:57.417Z,927.52
2019-03-08T03:59:29.231Z,927.53
2019-03-08T04:01:01.046Z,927.52
2019-03-08T04:02:32.861Z,927.45
2019-03-08T04:04:04.677Z,927.40
2019-03-08T04:05:36.591Z,927.31
2019-03-08T04:07:08.306Z,927.31
2019-03-08T04:08:40.121Z,927.31
2019-03-08T04:10:11.939Z,927.27
2019-03-08T04:11:43.751Z,927.27
2019-03-08T04:13:15.566Z,927.25
2019-03-08T04:14:47.381Z,927.24
2019-03-08T04:16:19.196Z,927.24
2019-03-08T04:17:51.024Z,927.22
2019-03-08T04:19:22.831Z,927.19
2019-03-08T04:20:54.640Z,927.18
2019-03-08T04:22:26.455Z,927.13
2019-03-08T04:23:58.371Z,927.12
2019-03-08T04:25:30.084Z,927.09
2019-03-08T04:27:01.899Z,927.12
2019-03-08T04:28:33.714Z,927.10
2019-03-08T04:30:05.528Z,927.09
2019-03-08T04:31:37.343Z,927.07
2019-03-08T04:33:09.158Z,927.09
2019-03-08T04:34:40.973Z,927.09
2019-03-08T04:36:13.049Z,927.08
2019-03-08T04:37:44.602Z,927.07
2019-03-08T04:39:16.417Z,927.07
2019-03-08T04:40:48.232Z,927.06
2019-03-08T04:42:20.147Z,927.04
2019-03-08T04:43:51.862Z,927.04
2019-03-08T04:45:23.676Z,927.03
2019-03-08T04:46:55.491Z,926.99
2019-03-08T04:48:27.305Z,926.96
2019-03-08T04:49:59.120Z,926.89
2019-03-08T04:51:30.935Z,926.87
2019-03-08T04:53:02.751Z,926.78
2019-03-08T04:54:34.564Z,926.77
2019-03-08T04:56:06.379Z,926.72
2019-03-08T04:57:38.193Z,926.70
2019-03-08T04:59:10.008Z,926.74
2019-03-08T05:00:41.922Z,926.67
2019-03-08T05:02:13.637Z,926.66
2019-03-08T05:03:45.493Z,926.68
2019-03-08T05:05:17.267Z,926.66
2019-03-08T05:06:49.081Z,926.68
2019-03-08T05:08:20.896Z,926.65
2019-03-08T05:09:52.710Z,926.64
2019-03-08T05:11:24.526Z,926.65
2019-03-08T05:12:56.356Z,926.66
2019-03-08T05:14:28.153Z,926.62
2019-03-08T05:15:59.975Z,926.59
2019-03-08T05:17:31.782Z,926.59
2019-03-08T05:19:03.697Z,926.60
2019-03-08T05:20:35.411Z,926.57
2019-03-08T05:22:07.226Z,926.55
2019-03-08T05:23:39.055Z,926.55
2019-03-08T05:25:10.854Z,926.51
2019-03-08T05:26:42.669Z,926.48
2019-03-08T05:28:14.483Z,926.49
2019-03-08T05:29:46.304Z,926.46
2019-03-08T05:34:22.091Z,926.37
2019-03-08T05:35:53.757Z,926.40
2019-03-08T05:37:25.384Z,926.36
2019-03-08T05:38:57.183Z,926.34
2019-03-08T05:40:28.998Z,926.32
2019-03-08T05:42:01.024Z,926.36
2019-03-08T05:43:32.657Z,926.35
2019-03-08T05:46:36.559Z,926.36
2019-03-08T05:48:08.069Z,926.39
2019-03-08T05:49:39.883Z,926.30
2019-03-08T05:51:11.699Z,926.30
2019-03-08T05:52:43.616Z,926.25
2019-03-08T05:54:15.327Z,926.23
2019-03-08T05:55:47.140Z,926.23
2019-03-08T05:57:18.955Z,926.20
2019-03-08T05:58:50.771Z,926.20
2019-03-08T06:00:31.317Z,926.19
2019-03-08T06:01:54.398Z,926.14
2019-03-08T06:03:26.213Z,926.16
2019-03-08T06:04:58.028Z,926.13
2019-03-08T06:06:29.844Z,926.09
2019-03-08T06:08:01.859Z,926.12
2019-03-08T06:09:33.672Z,926.08
2019-03-08T06:11:05.385Z,926.10
2019-03-08T06:12:37.097Z,926.09
2019-03-08T06:14:08.911Z,926.13
2019-03-08T06:15:40.728Z,926.15
2019-03-08T06:18:44.355Z,926.16
2019-03-08T06:20:16.169Z,926.16
2019-03-08T06:21:47.984Z,926.16
2019-03-08T06:23:19.799Z,926.13
2019-03-08T06:24:51.823Z,926.10
2019-03-08T06:26:23.426Z,926.05
2019-03-08T06:27:55.240Z,926.01
2019-03-08T06:29:27.054Z,926.01
2019-03-08T06:30:58.968Z,925.97
2019-03-08T06:32:30.683Z,925.93
2019-03-08T06:34:02.498Z,925.86
2019-03-08T06:35:34.310Z,925.84
2019-03-08T06:37:06.133Z,925.77
2019-03-08T06:38:37.957Z,925.75
2019-03-08T06:40:09.753Z,925.72
2019-03-08T06:41:41.567Z,925.68
2019-03-08T06:43:13.380Z,925.66
2019-03-08T06:44:45.198Z,925.71
2019-03-08T06:46:17.009Z,925.70
2019-03-08T06:47:48.823Z,925.66
2019-03-08T06:49:20.737Z,925.64
2019-03-08T06:50:52.451Z,925.67
2019-03-08T06:52:24.266Z,925.71
2019-03-08T06:53:56.078Z,925.73
2019-03-08T06:55:27.892Z,925.73
2019-03-08T06:56:59.706Z,925.68
2019-03-08T06:58:31.520Z,925.65
2019-03-08T07:00:03.334Z,925.59
2019-03-08T07:01:35.148Z,925.59
2019-03-08T07:03:06.962Z,925.57
2019-03-08T07:04:38.782Z,925.51
2019-03-08T07:06:10.590Z,925.52
2019-03-08T07:07:42.504Z,925.52
2019-03-08T07:09:14.217Z,925.55
2019-03-08T07:10:46.031Z,925.56
2019-03-08T07:12:17.847Z,925.57
2019-03-08T07:13:49.659Z,925.59
2019-03-08T07:15:21.474Z,925.55
2019-03-08T07:16:53.289Z,925.55
2019-03-08T07:18:25.100Z,925.57
2019-03-08T07:19:56.914Z,925.62
2019-03-08T07:21:28.730Z,925.61
2019-03-08T07:23:00.542Z,925.58
2019-03-08T07:24:32.358Z,925.60
2019-03-08T07:26:04.271Z,925.62
2019-03-08T07:27:35.987Z,925.60
2019-03-08T07:29:07.798Z,925.63
2019-03-08T07:30:39.612Z,925.67
2019-03-08T07:32:11.426Z,925.66
2019-03-08T07:33:52.686Z,925.64
2019-03-08T07:35:15.056Z,925.64
2019-03-08T07:36:46.868Z,925.74
2019-03-08T07:38:18.682Z,925.68
2019-03-08T07:39:50.496Z,925.62
2019-03-08T07:41:22.311Z,925.63
2019-03-08T07:42:54.130Z,925.63
2019-03-08T07:44:26.044Z,925.62
2019-03-08T07:45:57.757Z,925.58
2019-03-08T07:47:29.567Z,925.58
2019-03-08T07:49:01.382Z,925.56
2019-03-08T07:50:33.196Z,925.58
2019-03-08T07:52:05.030Z,925.59
2019-03-08T07:53:36.827Z,925.60
2019-03-08T07:55:08.639Z,925.64
2019-03-08T07:56:40.456Z,925.68
2019-03-08T07:58:12.268Z,925.60
2019-03-08T07:59:53.205Z,925.62
2019-03-08T08:01:15.899Z,925.65
2019-03-08T08:02:47.810Z,925.67
2019-03-08T08:04:19.524Z,925.71
2019-03-08T08:05:57.903Z,925.73
2019-03-08T08:07:23.153Z,925.72
2019-03-08T08:08:54.968Z,925.72
2019-03-08T08:10:26.782Z,925.74
2019-03-08T08:11:58.595Z,925.77
2019-03-08T08:13:30.410Z,925.86
2019-03-08T08:15:02.224Z,925.89
2019-03-08T08:16:34.038Z,925.90
2019-03-08T08:18:05.855Z,925.89
2019-03-08T08:19:37.668Z,925.87
2019-03-08T08:21:09.613Z,925.90
2019-03-08T08:22:41.296Z,925.97
2019-03-08T08:24:13.110Z,925.96
2019-03-08T08:25:44.929Z,926.02
2019-03-08T08:27:16.743Z,926.04
2019-03-08T08:28:50.153Z,926.11
2019-03-08T08:30:20.368Z,926.15
2019-03-08T08:31:52.182Z,926.10
2019-03-08T08:33:23.996Z,926.12
2019-03-08T08:34:55.810Z,926.12
2019-03-08T08:36:27.625Z,926.13
2019-03-08T08:37:59.439Z,926.12
2019-03-08T08:39:31.353Z,926.16
2019-03-08T08:41:03.068Z,926.25
2019-03-08T08:42:34.882Z,926.23
2019-03-08T08:44:06.696Z,926.21
2019-03-08T08:45:38.511Z,926.25
2019-03-08T08:47:10.324Z,926.24
2019-03-08T08:48:42.139Z,926.24
2019-03-08T08:50:13.954Z,926.28
2019-03-08T08:51:45.769Z,926.34
2019-03-08T08:53:17.582Z,926.39
2019-03-08T08:54:49.460Z,926.44
2019-03-08T08:56:21.210Z,926.51
2019-03-08T08:57:53.975Z,926.48
2019-03-08T08:59:24.842Z,926.53
2019-03-08T09:00:56.679Z,926.55
2019-03-08T09:02:28.465Z,926.62
2019-03-08T09:04:00.286Z,926.62
2019-03-08T09:05:32.094Z,926.61
2019-03-08T09:07:03.968Z,926.63
2019-03-08T09:08:36.057Z,926.61
2019-03-08T09:10:07.823Z,926.61
2019-03-08T09:11:45.970Z,926.61
2019-03-08T09:13:11.756Z,926.63
2019-03-08T09:14:43.105Z,926.69
2019-03-08T09:16:15.907Z,926.74
2019-03-08T09:17:46.636Z,926.78
2019-03-08T09:19:18.420Z,926.79
2019-03-08T09:20:50.234Z,926.81
2019-03-08T09:22:22.049Z,926.79
2019-03-08T09:23:54.000Z,926.74
2019-03-08T09:25:25.710Z,926.78
2019-03-08T09:26:57.493Z,926.77
2019-03-08T09:28:29.324Z,926.81
2019-03-08T09:30:01.144Z,926.84
2019-03-08T09:31:33.128Z,926.77
2019-03-08T09:33:04.759Z,926.87
2019-03-08T09:34:36.925Z,926.85
2019-03-08T09:36:08.386Z,926.82
2019-03-08T09:37:40.201Z,926.84
2019-03-08T09:39:12.017Z,926.86
2019-03-08T09:40:43.833Z,926.87
2019-03-08T09:42:15.650Z,926.88
2019-03-08T09:43:47.493Z,926.91
2019-03-08T09:45:19.279Z,926.93
2019-03-08T09:46:51.122Z,926.95
2019-03-08T09:48:22.911Z,927.03
2019-03-08T09:49:54.777Z,927.04
2019-03-08T09:51:26.565Z,927.09
2019-03-08T09:52:58.664Z,927.11
2019-03-08T09:54:30.183Z,927.14
2019-03-08T09:56:02.180Z,927.12
2019-03-08T09:57:33.804Z,927.11
2019-03-08T09:59:05.648Z,927.11
2019-03-08T10:00:37.475Z,927.20
2019-03-08T10:02:09.297Z,927.21
2019-03-08T10:03:41.073Z,927.22
2019-03-08T10:05:12.895Z,927.24
2019-03-08T10:06:44.726Z,927.30
2019-03-08T10:08:16.527Z,927.35
2019-03-08T10:09:48.378Z,927.37
2019-03-08T10:11:20.250Z,927.31
2019-03-08T10:12:51.966Z,927.39
2019-03-08T10:14:25.245Z,927.34
2019-03-08T10:15:55.603Z,927.34
2019-03-08T10:17:27.490Z,927.36
2019-03-08T10:18:59.281Z,927.39
2019-03-08T10:20:31.076Z,927.41
2019-03-08T10:23:34.691Z,927.40
2019-03-08T10:25:06.529Z,927.42
2019-03-08T10:26:38.647Z,927.43
2019-03-08T10:28:10.142Z,927.44
2019-03-08T10:29:42.061Z,927.49
2019-03-08T10:31:13.830Z,927.51
2019-03-08T10:32:45.600Z,927.51
2019-03-08T10:34:17.474Z,927.54
2019-03-08T10:35:49.303Z,927.59
2019-03-08T10:37:21.280Z,927.56
2019-03-08T10:38:52.873Z,927.61
2019-03-08T10:40:24.708Z,927.65
2019-03-08T10:41:56.578Z,927.66
2019-03-08T10:43:28.335Z,927.70
2019-03-08T10:45:00.444Z,927.72
2019-03-08T10:46:31.971Z,927.72
2019-03-08T10:48:03.894Z,927.74
2019-03-08T10:49:36.059Z,927.76
2019-03-08T10:51:07.491Z,927.77
2019-03-08T10:52:39.539Z,927.80
2019-03-08T10:54:11.074Z,927.84
2019-03-08T10:55:42.909Z,927.92
2019-03-08T10:57:15.105Z,927.92
2019-03-08T10:58:46.532Z,928.01
2019-03-08T11:00:18.352Z,928.06
2019-03-08T11:01:50.629Z,928.10
2019-03-08T11:03:21.994Z,928.03
2019-03-08T11:04:53.840Z,928.08
2019-03-08T11:06:25.732Z,928.13
2019-03-08T11:07:57.452Z,928.14
2019-03-08T11:09:29.272Z,928.16
2019-03-08T11:11:06.360Z,928.21
2019-03-08T11:12:33.462Z,928.22
2019-03-08T11:14:05.448Z,928.28
2019-03-08T11:15:36.554Z,928.28
2019-03-08T11:17:08.379Z,928.28
2019-03-08T11:18:40.211Z,928.35
2019-03-08T11:20:12.018Z,928.40
2019-03-08T11:21:43.850Z,928.41
2019-03-08T11:23:15.660Z,928.40
2019-03-08T11:24:47.885Z,928.45
2019-03-08T11:26:19.426Z,928.35
2019-03-08T11:27:51.143Z,928.46
2019-03-08T11:29:23.272Z,928.45
2019-03-08T11:30:54.768Z,928.46
2019-03-08T11:32:26.692Z,928.49
2019-03-08T11:34:01.410Z,928.47
2019-03-08T11:35:30.382Z,928.50
2019-03-08T11:37:04.096Z,928.51
2019-03-08T11:38:33.890Z,928.53
2019-03-08T11:40:05.715Z,928.55
2019-03-08T11:41:37.928Z,928.52
2019-03-08T11:43:10.249Z,928.44
2019-03-08T11:44:41.366Z,928.52
2019-03-08T11:46:13.027Z,928.49
2019-03-08T11:47:45.120Z,928.57
2019-03-08T11:49:16.655Z,928.50
2019-03-08T11:50:48.458Z,928.52
2019-03-08T11:52:20.283Z,928.54
2019-03-08T11:53:56.116Z,928.53
2019-03-08T11:55:23.929Z,928.53
2019-03-08T11:56:56.552Z,928.54
2019-03-08T11:58:27.622Z,928.54
2019-03-08T11:59:59.821Z,928.54
2019-03-08T12:01:31.563Z,928.57
2019-03-08T12:03:03.046Z,928.61
2019-03-08T12:04:35.096Z,928.65
2019-03-08T12:06:06.694Z,928.57
2019-03-08T12:07:38.519Z,928.61
2019-03-08T12:09:10.342Z,928.61
2019-03-08T12:10:42.167Z,928.56
2019-03-08T12:12:13.990Z,928.52
2019-03-08T12:13:45.814Z,928.56
2019-03-08T12:15:17.641Z,928.55
2019-03-08T12:16:49.464Z,928.57
2019-03-08T12:18:21.289Z,928.54
2019-03-08T12:19:53.223Z,928.54
2019-03-08T12:21:24.941Z,928.45
2019-03-08T12:22:56.766Z,928.45
2019-03-08T12:24:28.593Z,928.45
2019-03-08T12:26:00.419Z,928.45
2019-03-08T12:27:32.248Z,928.22
2019-03-08T12:29:04.071Z,928.38
2019-03-08T12:32:08.327Z,928.26
2019-03-08T12:33:39.547Z,928.27
2019-03-08T12:35:11.371Z,928.33
2019-03-08T12:36:43.198Z,928.32
2019-03-08T12:38:15.414Z,928.35
2019-03-08T12:39:47.985Z,928.35
2019-03-08T12:41:18.674Z,928.35
2019-03-08T12:42:50.500Z,928.42
2019-03-08T12:44:22.325Z,928.38
2019-03-08T12:45:54.151Z,928.51
2019-03-08T12:47:25.977Z,928.52
2019-03-08T12:48:57.803Z,928.44
2019-03-08T12:50:29.631Z,928.48
2019-03-08T12:52:01.458Z,928.45
2019-03-08T12:53:33.282Z,928.44
2019-03-08T12:55:05.109Z,928.49
2019-03-08T12:56:37.039Z,928.51
2019-03-08T12:58:08.761Z,928.56
2019-03-08T12:59:40.586Z,928.45
2019-03-08T13:01:12.412Z,928.46
2019-03-08T13:02:44.238Z,928.55
2019-03-08T13:04:16.094Z,928.49
2019-03-08T13:05:47.892Z,928.52
2019-03-08T13:07:19.719Z,928.53
2019-03-08T13:08:51.547Z,928.54
2019-03-08T13:10:23.372Z,928.53
2019-03-08T13:11:55.199Z,928.59
2019-03-08T13:13:27.026Z,928.47
2019-03-08T13:14:58.955Z,928.51
2019-03-08T13:16:30.681Z,928.51
2019-03-08T13:18:02.508Z,928.48
2019-03-08T13:19:34.338Z,928.50
2019-03-08T13:21:06.165Z,928.47
2019-03-08T13:22:37.994Z,928.68
2019-03-08T13:24:09.824Z,928.51
2019-03-08T13:25:41.653Z,928.58
2019-03-08T13:27:13.485Z,928.50
2019-03-08T13:28:45.314Z,928.55
2019-03-08T13:30:17.137Z,928.80
2019-03-08T13:31:48.968Z,928.58
2019-03-08T13:33:20.905Z,928.78
2019-03-08T13:34:52.633Z,928.47
2019-03-08T13:36:24.458Z,928.54
2019-03-08T13:37:56.287Z,928.69
2019-03-08T13:39:28.120Z,928.22
2019-03-08T13:40:59.947Z,928.15
2019-03-08T13:42:31.766Z,928.52
2019-03-08T13:44:03.623Z,928.71
2019-03-08T13:45:35.825Z,928.69
2019-03-08T13:47:07.246Z,928.60
2019-03-08T13:48:39.074Z,928.37
2019-03-08T13:50:11.020Z,928.10
2019-03-08T13:51:42.826Z,928.01
2019-03-08T13:53:14.552Z,927.91
2019-03-08T13:54:46.378Z,927.95
2019-03-08T13:56:18.204Z,928.08
2019-03-08T13:57:50.031Z,928.06
2019-03-08T13:59:21.856Z,928.06
2019-03-08T14:00:53.682Z,927.94
2019-03-08T14:02:25.509Z,927.88
2019-03-08T14:03:57.492Z,927.80
2019-03-08T14:05:29.178Z,927.75
2019-03-08T14:07:00.992Z,927.74
2019-03-08T14:08:32.822Z,927.48
2019-03-08T14:10:04.752Z,927.49
2019-03-08T14:11:36.476Z,927.46
2019-03-08T14:13:08.304Z,927.41
2019-03-08T14:14:40.132Z,927.38
2019-03-08T14:16:11.960Z,927.34
2019-03-08T14:17:43.790Z,927.11
2019-03-08T14:19:17.494Z,927.40
2019-03-08T14:20:47.547Z,927.39
2019-03-08T14:22:19.576Z,927.44
2019-03-08T14:23:51.101Z,927.45
2019-03-08T14:25:22.972Z,927.40
2019-03-08T14:26:54.758Z,927.39
2019-03-08T14:28:26.686Z,927.41
2019-03-08T14:29:59.244Z,927.39
2019-03-08T14:31:30.244Z,927.56
2019-03-08T14:33:03.116Z,927.46
2019-03-08T14:34:33.910Z,927.64
2019-03-08T14:36:06.101Z,927.65
2019-03-08T14:37:37.559Z,927.47
2019-03-08T14:39:09.392Z,927.44
2019-03-08T14:40:43.211Z,927.40
2019-03-08T14:42:13.071Z,927.42
2019-03-08T14:43:44.877Z,927.40
2019-03-08T14:45:16.706Z,927.40
2019-03-08T14:46:48.636Z,927.28
2019-03-08T14:48:20.366Z,927.30
2019-03-08T14:49:55.292Z,927.30
2019-03-08T14:51:24.026Z,927.28
2019-03-08T14:52:56.863Z,927.31
2019-03-08T14:54:27.686Z,927.32
2019-03-08T14:55:59.977Z,927.24
2019-03-08T14:57:31.464Z,927.31
2019-03-08T14:59:03.179Z,927.25
2019-03-08T15:00:35.006Z,927.31
2019-03-08T15:02:06.839Z,927.35
2019-03-08T15:03:43.148Z,927.35
2019-03-08T15:05:11.491Z,927.47
2019-03-08T15:06:42.329Z,927.47
2019-03-08T15:08:17.704Z,927.44
2019-03-08T15:09:45.985Z,927.49
2019-03-08T15:11:17.814Z,927.62
2019-03-08T15:12:49.695Z,927.54
2019-03-08T15:14:21.476Z,927.36
2019-03-08T15:15:53.303Z,927.54
2019-03-08T15:17:25.134Z,927.35
2019-03-08T15:18:56.963Z,927.50
2019-03-08T15:20:28.789Z,927.36
2019-03-08T15:22:00.617Z,927.17
2019-03-08T15:23:32.544Z,927.09
2019-03-08T15:25:04.273Z,927.29
2019-03-08T15:26:36.100Z,927.14
2019-03-08T15:28:07.938Z,927.12
2019-03-08T15:29:39.756Z,927.03
2019-03-08T15:31:11.592Z,926.92
2019-03-08T15:32:43.414Z,927.07
2019-03-08T15:34:21.464Z,926.90
2019-03-08T15:35:47.071Z,926.83
2019-03-08T15:37:18.901Z,926.89
2019-03-08T15:38:58.196Z,927.10
2019-03-08T15:40:22.562Z,926.96
2019-03-08T15:41:54.489Z,926.96
2019-03-08T15:43:26.221Z,926.97
2019-03-08T15:45:01.496Z,926.79
2019-03-08T15:46:29.878Z,926.94
2019-03-08T15:48:01.708Z,926.90
2019-03-08T15:49:33.539Z,926.92
2019-03-08T15:51:05.366Z,927.03
2019-03-08T15:52:37.195Z,926.90
2019-03-08T15:54:09.027Z,926.96
2019-03-08T15:55:40.977Z,927.17
2019-03-08T15:57:12.679Z,927.25
2019-03-08T15:58:44.507Z,927.11
2019-03-08T16:00:16.535Z,926.93
2019-03-08T16:01:48.163Z,926.89
2019-03-08T16:03:19.991Z,926.82
2019-03-08T16:04:51.822Z,926.76
2019-03-08T16:06:23.656Z,926.73
2019-03-08T16:07:57.697Z,926.76
2019-03-08T16:09:27.308Z,926.78
2019-03-08T16:10:59.139Z,926.48
2019-03-08T16:12:30.975Z,926.60
2019-03-08T16:14:08.702Z,926.65
2019-03-08T16:15:36.028Z,926.46
2019-03-08T16:17:06.489Z,926.40
2019-03-08T16:18:40.058Z,926.54
2019-03-08T16:20:10.169Z,926.57
2019-03-08T16:21:41.948Z,926.53
2019-03-08T16:23:13.777Z,926.52
2019-03-08T16:24:45.605Z,926.54
2019-03-08T16:26:21.309Z,926.44
2019-03-08T16:27:49.263Z,926.28
2019-03-08T16:29:21.089Z,926.32
2019-03-08T16:30:52.917Z,926.30
2019-03-08T16:32:24.784Z,926.33
2019-03-08T16:33:56.705Z,926.25
2019-03-08T16:35:28.482Z,926.39
2019-03-08T16:37:00.443Z,926.25
2019-03-08T16:38:32.315Z,926.07
2019-03-08T16:40:04.009Z,926.35
2019-03-08T16:41:35.935Z,926.65
2019-03-08T16:43:09.012Z,926.59
2019-03-08T16:44:39.812Z,926.71
2019-03-08T16:46:11.378Z,926.48
2019-03-08T16:47:43.831Z,926.18
2019-03-08T16:49:18.710Z,926.24
2019-03-08T16:50:46.910Z,926.71
2019-03-08T16:52:18.582Z,926.53
2019-03-08T16:53:50.374Z,926.56
2019-03-08T16:55:22.633Z,926.38
2019-03-08T16:56:54.084Z,926.32
2019-03-08T16:58:26.093Z,926.36
2019-03-08T16:59:57.968Z,926.34
2019-03-08T17:01:29.482Z,926.63
2019-03-08T17:03:01.416Z,926.66
2019-03-08T17:04:33.510Z,926.72
2019-03-08T17:06:04.978Z,926.56
2019-03-08T17:07:36.931Z,926.36
2019-03-08T17:09:08.932Z,926.29
2019-03-08T17:10:42.005Z,926.40
2019-03-08T17:12:12.310Z,926.32
2019-03-08T17:13:44.427Z,926.15
2019-03-08T17:15:16.039Z,926.12
2019-03-08T17:16:47.836Z,926.16
2019-03-08T17:18:19.589Z,926.17
2019-03-08T17:19:51.628Z,926.13
2019-03-08T17:21:23.274Z,926.02
2019-03-08T17:22:55.264Z,925.96
2019-03-08T17:24:27.056Z,926.02
2019-03-08T17:25:59.020Z,925.94
2019-03-08T17:27:30.754Z,926.02
2019-03-08T17:29:02.647Z,926.08
2019-03-08T17:30:34.573Z,926.08
2019-03-08T17:32:06.366Z,925.89
2019-03-08T17:33:38.040Z,926.08
2019-03-08T17:35:09.986Z,926.03
2019-03-08T17:36:42.078Z,926.05
2019-03-08T17:38:13.675Z,926.03
2019-03-08T17:39:45.182Z,925.95
2019-03-08T17:41:17.582Z,925.90
2019-03-08T17:42:49.030Z,925.85
2019-03-08T17:44:21.006Z,925.87
2019-03-08T17:45:52.592Z,926.10
2019-03-08T17:47:24.413Z,925.93
2019-03-08T17:48:56.298Z,926.09
2019-03-08T17:50:28.128Z,925.90
2019-03-08T17:51:59.909Z,925.92
2019-03-08T17:53:31.725Z,925.87
2019-03-08T17:55:03.573Z,925.78
2019-03-08T17:56:35.280Z,925.71
2019-03-08T17:58:07.114Z,925.59
2019-03-08T17:59:39.158Z,925.73
2019-03-08T18:01:10.683Z,925.58
2019-03-08T18:02:42.616Z,925.57
2019-03-08T18:04:14.541Z,925.60
2019-03-08T18:05:46.232Z,925.55
2019-03-08T18:07:17.983Z,925.61
2019-03-08T18:08:50.088Z,925.64
2019-03-08T18:10:21.720Z,925.65
2019-03-08T18:11:53.735Z,925.61
2019-03-08T18:13:25.495Z,925.67
2019-03-08T18:14:57.186Z,925.74
2019-03-08T18:16:29.166Z,925.77
2019-03-08T18:18:00.880Z,925.83
2019-03-08T18:19:32.857Z,925.80
2019-03-08T18:21:04.897Z,925.69
2019-03-08T18:22:36.657Z,925.69
2019-03-08T18:24:08.290Z,925.70
2019-03-08T18:25:40.115Z,925.72
2019-03-08T18:27:11.902Z,925.77
2019-03-08T18:28:43.856Z,925.71
2019-03-08T18:30:15.451Z,925.78
2019-03-08T18:31:47.280Z,925.77
2019-03-08T18:33:19.278Z,925.70
2019-03-08T18:34:51.429Z,925.65
2019-03-08T18:36:22.891Z,925.61
2019-03-08T18:37:54.797Z,925.58
2019-03-08T18:39:26.601Z,925.48
2019-03-08T18:40:59.036Z,925.47
2019-03-08T18:42:30.591Z,925.37
2019-03-08T18:44:03.524Z,925.29
2019-03-08T18:45:34.604Z,925.23
2019-03-08T18:47:05.887Z,925.24
2019-03-08T18:48:37.759Z,925.27
2019-03-08T18:50:09.862Z,925.26
2019-03-08T18:51:42.035Z,925.18
2019-03-08T18:53:13.429Z,925.12
2019-03-08T18:54:45.791Z,925.03
2019-03-08T18:56:17.102Z,925.06
2019-03-08T18:57:50.049Z,925.02
2019-03-08T18:59:20.529Z,924.97
2019-03-08T19:00:52.204Z,924.99
2019-03-08T19:02:23.729Z,924.95
2019-03-08T19:03:55.561Z,925.03
2019-03-08T19:05:27.593Z,925.04
2019-03-08T19:06:59.112Z,925.04
2019-03-08T19:08:31.249Z,925.07
2019-03-08T19:10:02.761Z,925.17
2019-03-08T19:11:35.130Z,925.02
2019-03-08T19:13:06.411Z,924.99
2019-03-08T19:14:38.611Z,925.00